sensor_id;sensor_type;location;lat;lon;timestamp;P1;durP1;ratioP1;P2;durP2;ratioP2
77402;SDS011;66472;53.046;8.656;2023-03-01T00:01:18;19.03;;;9.60;;
77402;SDS011;66472;53.046;8.656;2023-03-01T00:06:14;15.13;;;11.50;;
77402;SDS011;66472;53.046;8.656;2023-03-01T00:11:12;23.67;;;12.60;;
77402;SDS011;66472;53.046;8.656;2023-03-01T00:16:09;15.03;;;11.37;;
77402;SDS011;66472;53.046;8.656;2023-03-01T00:21:04;16.10;;;10.83;;
77402;SDS011;66472;53.046;8.656;2023-03-01T00:26:00;16.47;;;10.33;;
77402;SDS011;66472;53.046;8.656;2023-03-01T00:30:55;14.53;;;10.77;;
77402;SDS011;66472;53.046;8.656;2023-03-01T00:35:51;14.70;;;10.30;;
77402;SDS011;66472;53.046;8.656;2023-03-01T00:40:46;15.75;;;10.23;;
77402;SDS011;66472;53.046;8.656;2023-03-01T00:45:41;18.67;;;11.15;;
77402;SDS011;66472;53.046;8.656;2023-03-01T00:50:36;19.45;;;11.45;;
77402;SDS011;66472;53.046;8.656;2023-03-01T00:55:32;18.33;;;11.98;;
77402;SDS011;66472;53.046;8.656;2023-03-01T01:00:27;19.53;;;13.63;;
77402;SDS011;66472;53.046;8.656;2023-03-01T01:05:22;17.40;;;11.83;;
77402;SDS011;66472;53.046;8.656;2023-03-01T01:10:18;17.70;;;12.87;;
77402;SDS011;66472;53.046;8.656;2023-03-01T01:15:13;17.43;;;13.77;;
77402;SDS011;66472;53.046;8.656;2023-03-01T01:20:11;18.53;;;12.83;;
77402;SDS011;66472;53.046;8.656;2023-03-01T01:25:07;16.50;;;12.23;;
77402;SDS011;66472;53.046;8.656;2023-03-01T01:30:03;17.23;;;12.77;;
77402;SDS011;66472;53.046;8.656;2023-03-01T01:34:58;17.77;;;13.70;;
77402;SDS011;66472;53.046;8.656;2023-03-01T01:39:53;16.50;;;12.52;;
77402;SDS011;66472;53.046;8.656;2023-03-01T01:45:16;15.43;;;11.10;;
77402;SDS011;66472;53.046;8.656;2023-03-01T01:50:04;17.03;;;13.83;;
77402;SDS011;66472;53.046;8.656;2023-03-01T01:55:01;18.57;;;13.00;;
77402;SDS011;66472;53.046;8.656;2023-03-01T01:59:57;18.63;;;12.93;;
77402;SDS011;66472;53.046;8.656;2023-03-01T02:05:01;14.13;;;12.10;;
77402;SDS011;66472;53.046;8.656;2023-03-01T02:09:58;13.60;;;11.73;;
77402;SDS011;66472;53.046;8.656;2023-03-01T02:14:54;16.57;;;11.80;;
77402;SDS011;66472;53.046;8.656;2023-03-01T02:30:14;18.90;;;12.23;;
77402;SDS011;66472;53.046;8.656;2023-03-01T02:35:10;19.17;;;11.73;;
77402;SDS011;66472;53.046;8.656;2023-03-01T02:40:08;14.03;;;11.47;;
77402;SDS011;66472;53.046;8.656;2023-03-01T02:45:07;14.10;;;9.87;;
77402;SDS011;66472;53.046;8.656;2023-03-01T02:50:02;17.00;;;10.10;;
77402;SDS011;66472;53.046;8.656;2023-03-01T02:55:09;13.40;;;10.27;;
77402;SDS011;66472;53.046;8.656;2023-03-01T03:00:08;13.13;;;8.83;;
77402;SDS011;66472;53.046;8.656;2023-03-01T03:05:11;13.90;;;11.10;;
77402;SDS011;66472;53.046;8.656;2023-03-01T03:10:08;14.87;;;11.63;;
77402;SDS011;66472;53.046;8.656;2023-03-01T03:15:04;16.00;;;11.20;;
77402;SDS011;66472;53.046;8.656;2023-03-01T03:20:04;9.93;;;9.03;;
77402;SDS011;66472;53.046;8.656;2023-03-01T03:24:59;11.03;;;9.77;;
77402;SDS011;66472;53.046;8.656;2023-03-01T03:29:54;9.95;;;8.95;;
77402;SDS011;66472;53.046;8.656;2023-03-01T03:34:50;10.60;;;9.30;;
77402;SDS011;66472;53.046;8.656;2023-03-01T03:39:45;11.30;;;9.30;;
77402;SDS011;66472;53.046;8.656;2023-03-01T03:44:40;13.90;;;8.50;;
77402;SDS011;66472;53.046;8.656;2023-03-01T03:49:36;10.05;;;8.77;;
77402;SDS011;66472;53.046;8.656;2023-03-01T03:54:31;11.52;;;7.38;;
77402;SDS011;66472;53.046;8.656;2023-03-01T03:59:26;9.65;;;7.80;;
77402;SDS011;66472;53.046;8.656;2023-03-01T04:04:22;13.67;;;8.67;;
77402;SDS011;66472;53.046;8.656;2023-03-01T04:09:17;10.07;;;8.47;;
77402;SDS011;66472;53.046;8.656;2023-03-01T04:14:12;12.93;;;8.02;;
77402;SDS011;66472;53.046;8.656;2023-03-01T04:19:08;11.57;;;8.70;;
77402;SDS011;66472;53.046;8.656;2023-03-01T04:24:04;15.70;;;8.17;;
77402;SDS011;66472;53.046;8.656;2023-03-01T04:28:59;10.37;;;9.37;;
77402;SDS011;66472;53.046;8.656;2023-03-01T04:33:55;10.82;;;8.50;;
77402;SDS011;66472;53.046;8.656;2023-03-01T04:38:50;12.57;;;7.77;;
77402;SDS011;66472;53.046;8.656;2023-03-01T04:43:46;13.77;;;8.60;;
77402;SDS011;66472;53.046;8.656;2023-03-01T04:48:44;10.63;;;8.20;;
77402;SDS011;66472;53.046;8.656;2023-03-01T04:53:40;15.93;;;9.23;;
77402;SDS011;66472;53.046;8.656;2023-03-01T04:58:35;10.27;;;8.40;;
77402;SDS011;66472;53.046;8.656;2023-03-01T05:03:31;11.60;;;8.67;;
77402;SDS011;66472;53.046;8.656;2023-03-01T05:08:26;11.35;;;8.98;;
77402;SDS011;66472;53.046;8.656;2023-03-01T05:13:22;13.30;;;8.20;;
77402;SDS011;66472;53.046;8.656;2023-03-01T05:18:17;15.10;;;10.17;;
77402;SDS011;66472;53.046;8.656;2023-03-01T05:23:12;9.25;;;8.35;;
77402;SDS011;66472;53.046;8.656;2023-03-01T05:28:10;15.90;;;9.13;;
77402;SDS011;66472;53.046;8.656;2023-03-01T05:38:18;15.70;;;9.97;;
77402;SDS011;66472;53.046;8.656;2023-03-01T05:43:14;13.80;;;9.23;;
77402;SDS011;66472;53.046;8.656;2023-03-01T05:48:10;10.77;;;8.77;;
77402;SDS011;66472;53.046;8.656;2023-03-01T05:53:12;12.60;;;9.03;;
77402;SDS011;66472;53.046;8.656;2023-03-01T05:58:09;16.73;;;9.90;;
77402;SDS011;66472;53.046;8.656;2023-03-01T06:03:05;10.83;;;9.73;;
77402;SDS011;66472;53.046;8.656;2023-03-01T06:08:00;11.55;;;8.77;;
77402;SDS011;66472;53.046;8.656;2023-03-01T06:12:56;10.63;;;9.27;;
77402;SDS011;66472;53.046;8.656;2023-03-01T06:17:53;12.07;;;8.77;;
77402;SDS011;66472;53.046;8.656;2023-03-01T06:22:50;16.43;;;9.73;;
77402;SDS011;66472;53.046;8.656;2023-03-01T06:27:45;13.93;;;8.27;;
77402;SDS011;66472;53.046;8.656;2023-03-01T06:32:41;9.83;;;8.10;;
77402;SDS011;66472;53.046;8.656;2023-03-01T06:37:40;8.33;;;7.40;;
77402;SDS011;66472;53.046;8.656;2023-03-01T06:42:35;9.70;;;8.73;;
77402;SDS011;66472;53.046;8.656;2023-03-01T06:47:31;11.20;;;9.07;;
77402;SDS011;66472;53.046;8.656;2023-03-01T06:52:28;7.77;;;6.63;;
77402;SDS011;66472;53.046;8.656;2023-03-01T06:57:23;12.60;;;8.83;;
77402;SDS011;66472;53.046;8.656;2023-03-01T07:02:18;9.23;;;6.93;;
77402;SDS011;66472;53.046;8.656;2023-03-01T07:07:14;8.83;;;7.60;;
77402;SDS011;66472;53.046;8.656;2023-03-01T07:12:09;9.18;;;8.40;;
77402;SDS011;66472;53.046;8.656;2023-03-01T07:17:04;20.98;;;10.65;;
77402;SDS011;66472;53.046;8.656;2023-03-01T07:21:59;14.10;;;9.77;;
77402;SDS011;66472;53.046;8.656;2023-03-01T07:26:55;10.53;;;9.33;;
77402;SDS011;66472;53.046;8.656;2023-03-01T07:31:50;8.10;;;7.33;;
77402;SDS011;66472;53.046;8.656;2023-03-01T07:36:45;9.27;;;8.10;;
77402;SDS011;66472;53.046;8.656;2023-03-01T07:41:41;30.00;;;17.50;;
77402;SDS011;66472;53.046;8.656;2023-03-01T07:46:36;18.80;;;11.90;;
77402;SDS011;66472;53.046;8.656;2023-03-01T07:51:31;13.18;;;10.82;;
77402;SDS011;66472;53.046;8.656;2023-03-01T07:56:27;14.17;;;10.50;;
77402;SDS011;66472;53.046;8.656;2023-03-01T08:01:22;17.63;;;11.07;;
77402;SDS011;66472;53.046;8.656;2023-03-01T08:06:17;13.27;;;10.50;;
77402;SDS011;66472;53.046;8.656;2023-03-01T08:11:13;9.53;;;8.53;;
77402;SDS011;66472;53.046;8.656;2023-03-01T08:16:13;9.43;;;8.43;;
77402;SDS011;66472;53.046;8.656;2023-03-01T08:21:13;10.97;;;8.80;;
77402;SDS011;66472;53.046;8.656;2023-03-01T08:26:13;12.33;;;8.90;;
77402;SDS011;66472;53.046;8.656;2023-03-01T08:36:10;11.70;;;9.73;;
77402;SDS011;66472;53.046;8.656;2023-03-01T08:41:05;12.03;;;9.83;;
77402;SDS011;66472;53.046;8.656;2023-03-01T08:46:00;9.02;;;8.13;;
77402;SDS011;66472;53.046;8.656;2023-03-01T08:50:56;8.97;;;7.97;;
77402;SDS011;66472;53.046;8.656;2023-03-01T08:55:51;8.87;;;7.20;;
77402;SDS011;66472;53.046;8.656;2023-03-01T09:00:47;9.40;;;7.23;;
77402;SDS011;66472;53.046;8.656;2023-03-01T09:05:42;9.47;;;7.67;;
77402;SDS011;66472;53.046;8.656;2023-03-01T09:10:38;10.85;;;7.32;;
77402;SDS011;66472;53.046;8.656;2023-03-01T09:15:36;7.67;;;6.87;;
77402;SDS011;66472;53.046;8.656;2023-03-01T09:20:31;9.10;;;7.27;;
77402;SDS011;66472;53.046;8.656;2023-03-01T09:25:27;7.83;;;6.90;;
77402;SDS011;66472;53.046;8.656;2023-03-01T09:30:23;10.40;;;7.70;;
77402;SDS011;66472;53.046;8.656;2023-03-01T09:35:19;10.93;;;7.27;;
77402;SDS011;66472;53.046;8.656;2023-03-01T09:40:16;6.87;;;6.03;;
77402;SDS011;66472;53.046;8.656;2023-03-01T09:45:15;8.60;;;6.07;;
77402;SDS011;66472;53.046;8.656;2023-03-01T09:50:18;7.33;;;5.40;;
77402;SDS011;66472;53.046;8.656;2023-03-01T09:55:15;6.40;;;4.53;;
77402;SDS011;66472;53.046;8.656;2023-03-01T10:00:23;4.70;;;4.27;;
77402;SDS011;66472;53.046;8.656;2023-03-01T10:10:23;8.53;;;4.67;;
77402;SDS011;66472;53.046;8.656;2023-03-01T10:15:22;7.07;;;5.10;;
77402;SDS011;66472;53.046;8.656;2023-03-01T10:20:21;7.33;;;6.07;;
77402;SDS011;66472;53.046;8.656;2023-03-01T10:25:18;8.80;;;6.07;;
77402;SDS011;66472;53.046;8.656;2023-03-01T10:30:19;13.77;;;6.23;;
77402;SDS011;66472;53.046;8.656;2023-03-01T10:35:19;13.30;;;5.97;;
77402;SDS011;66472;53.046;8.656;2023-03-01T10:40:14;8.57;;;5.90;;
77402;SDS011;66472;53.046;8.656;2023-03-01T10:45:17;8.73;;;6.23;;
77402;SDS011;66472;53.046;8.656;2023-03-01T10:50:19;11.73;;;6.40;;
77402;SDS011;66472;53.046;8.656;2023-03-01T10:55:23;11.20;;;7.23;;
77402;SDS011;66472;53.046;8.656;2023-03-01T11:05:19;8.17;;;7.37;;
77402;SDS011;66472;53.046;8.656;2023-03-01T11:10:20;7.93;;;6.97;;
77402;SDS011;66472;53.046;8.656;2023-03-01T11:15:23;8.70;;;7.20;;
77402;SDS011;66472;53.046;8.656;2023-03-01T11:20:26;8.77;;;7.87;;
77402;SDS011;66472;53.046;8.656;2023-03-01T11:25:29;7.70;;;6.50;;
77402;SDS011;66472;53.046;8.656;2023-03-01T11:35:25;8.57;;;7.73;;
77402;SDS011;66472;53.046;8.656;2023-03-01T11:40:23;9.43;;;7.77;;
77402;SDS011;66472;53.046;8.656;2023-03-01T11:45:19;8.70;;;7.80;;
77402;SDS011;66472;53.046;8.656;2023-03-01T12:05:51;8.60;;;7.80;;
77402;SDS011;66472;53.046;8.656;2023-03-01T12:16:10;9.07;;;7.37;;
77402;SDS011;66472;53.046;8.656;2023-03-01T12:21:30;8.40;;;7.53;;
77402;SDS011;66472;53.046;8.656;2023-03-01T12:41:56;9.67;;;8.83;;
77402;SDS011;66472;53.046;8.656;2023-03-01T12:52:09;12.87;;;9.10;;
77402;SDS011;66472;53.046;8.656;2023-03-01T12:57:21;11.10;;;9.93;;
77402;SDS011;66472;53.046;8.656;2023-03-01T13:12:45;9.57;;;8.57;;
77402;SDS011;66472;53.046;8.656;2023-03-01T13:17:41;9.13;;;8.23;;
77402;SDS011;66472;53.046;8.656;2023-03-01T13:22:38;9.97;;;8.67;;
77402;SDS011;66472;53.046;8.656;2023-03-01T13:27:33;8.40;;;7.60;;
77402;SDS011;66472;53.046;8.656;2023-03-01T13:37:25;9.03;;;8.13;;
77402;SDS011;66472;53.046;8.656;2023-03-01T13:47:34;11.53;;;8.93;;
77402;SDS011;66472;53.046;8.656;2023-03-01T13:57:34;10.53;;;8.87;;
77402;SDS011;66472;53.046;8.656;2023-03-01T14:02:30;11.20;;;8.57;;
77402;SDS011;66472;53.046;8.656;2023-03-01T14:07:26;8.50;;;7.60;;
77402;SDS011;66472;53.046;8.656;2023-03-01T14:22:35;9.63;;;7.37;;
77402;SDS011;66472;53.046;8.656;2023-03-01T14:27:35;10.77;;;7.90;;
77402;SDS011;66472;53.046;8.656;2023-03-01T14:32:34;8.90;;;8.00;;
77402;SDS011;66472;53.046;8.656;2023-03-01T14:37:31;10.03;;;9.00;;
77402;SDS011;66472;53.046;8.656;2023-03-01T14:42:36;9.87;;;7.27;;
77402;SDS011;66472;53.046;8.656;2023-03-01T14:47:32;11.10;;;8.00;;
77402;SDS011;66472;53.046;8.656;2023-03-01T14:52:31;9.17;;;8.27;;
77402;SDS011;66472;53.046;8.656;2023-03-01T14:57:29;11.63;;;8.17;;
77402;SDS011;66472;53.046;8.656;2023-03-01T15:02:24;13.85;;;9.85;;
77402;SDS011;66472;53.046;8.656;2023-03-01T15:07:20;12.70;;;10.07;;
77402;SDS011;66472;53.046;8.656;2023-03-01T15:17:32;11.50;;;9.50;;
77402;SDS011;66472;53.046;8.656;2023-03-01T15:22:28;12.20;;;9.20;;
77402;SDS011;66472;53.046;8.656;2023-03-01T15:27:24;11.02;;;9.82;;
77402;SDS011;66472;53.046;8.656;2023-03-01T15:47:28;15.98;;;11.05;;
77402;SDS011;66472;53.046;8.656;2023-03-01T15:52:28;16.23;;;12.00;;
77402;SDS011;66472;53.046;8.656;2023-03-01T15:57:24;18.17;;;12.50;;
77402;SDS011;66472;53.046;8.656;2023-03-01T16:02:20;17.77;;;13.73;;
77402;SDS011;66472;53.046;8.656;2023-03-01T16:07:16;15.63;;;12.10;;
77402;SDS011;66472;53.046;8.656;2023-03-01T16:12:13;16.03;;;12.33;;
77402;SDS011;66472;53.046;8.656;2023-03-01T16:17:08;17.40;;;12.93;;
77402;SDS011;66472;53.046;8.656;2023-03-01T16:22:05;16.13;;;13.00;;
77402;SDS011;66472;53.046;8.656;2023-03-01T16:27:00;14.40;;;11.73;;
77402;SDS011;66472;53.046;8.656;2023-03-01T16:31:55;20.55;;;12.90;;
77402;SDS011;66472;53.046;8.656;2023-03-01T16:36:50;17.98;;;13.07;;
77402;SDS011;66472;53.046;8.656;2023-03-01T16:41:46;19.58;;;14.38;;
77402;SDS011;66472;53.046;8.656;2023-03-01T16:46:41;16.85;;;13.77;;
77402;SDS011;66472;53.046;8.656;2023-03-01T16:51:36;20.90;;;15.40;;
77402;SDS011;66472;53.046;8.656;2023-03-01T16:56:32;18.77;;;13.00;;
77402;SDS011;66472;53.046;8.656;2023-03-01T17:01:29;19.60;;;15.20;;
77402;SDS011;66472;53.046;8.656;2023-03-01T17:06:34;17.40;;;14.07;;
77402;SDS011;66472;53.046;8.656;2023-03-01T17:11:29;21.13;;;15.65;;
77402;SDS011;66472;53.046;8.656;2023-03-01T17:16:24;20.90;;;14.93;;
77402;SDS011;66472;53.046;8.656;2023-03-01T17:21:21;21.10;;;15.00;;
77402;SDS011;66472;53.046;8.656;2023-03-01T17:26:17;21.23;;;16.03;;
77402;SDS011;66472;53.046;8.656;2023-03-01T17:31:12;25.73;;;14.53;;
77402;SDS011;66472;53.046;8.656;2023-03-01T17:36:07;19.83;;;15.00;;
77402;SDS011;66472;53.046;8.656;2023-03-01T17:41:03;22.02;;;14.75;;
77402;SDS011;66472;53.046;8.656;2023-03-01T17:45:58;20.43;;;14.43;;
77402;SDS011;66472;53.046;8.656;2023-03-01T17:50:54;22.92;;;16.60;;
77402;SDS011;66472;53.046;8.656;2023-03-01T17:55:57;21.63;;;15.83;;
77402;SDS011;66472;53.046;8.656;2023-03-01T18:00:53;24.00;;;17.37;;
77402;SDS011;66472;53.046;8.656;2023-03-01T18:05:48;26.07;;;18.40;;
77402;SDS011;66472;53.046;8.656;2023-03-01T18:10:44;30.37;;;19.53;;
77402;SDS011;66472;53.046;8.656;2023-03-01T18:15:39;30.33;;;19.67;;
77402;SDS011;66472;53.046;8.656;2023-03-01T18:20:35;27.97;;;19.87;;
77402;SDS011;66472;53.046;8.656;2023-03-01T18:25:30;30.50;;;21.23;;
77402;SDS011;66472;53.046;8.656;2023-03-01T18:30:25;32.17;;;21.10;;
77402;SDS011;66472;53.046;8.656;2023-03-01T18:35:21;30.10;;;21.45;;
77402;SDS011;66472;53.046;8.656;2023-03-01T18:40:17;28.00;;;20.40;;
77402;SDS011;66472;53.046;8.656;2023-03-01T18:45:13;29.97;;;20.70;;
77402;SDS011;66472;53.046;8.656;2023-03-01T18:50:11;32.20;;;18.77;;
77402;SDS011;66472;53.046;8.656;2023-03-01T18:55:06;28.80;;;18.55;;
77402;SDS011;66472;53.046;8.656;2023-03-01T19:00:02;29.93;;;19.27;;
77402;SDS011;66472;53.046;8.656;2023-03-01T19:04:58;30.37;;;20.03;;
77402;SDS011;66472;53.046;8.656;2023-03-01T19:09:53;35.55;;;20.80;;
77402;SDS011;66472;53.046;8.656;2023-03-01T19:14:48;29.85;;;20.17;;
77402;SDS011;66472;53.046;8.656;2023-03-01T19:19:45;70.53;;;31.13;;
77402;SDS011;66472;53.046;8.656;2023-03-01T19:24:40;36.03;;;21.57;;
77402;SDS011;66472;53.046;8.656;2023-03-01T19:29:35;23.05;;;16.30;;
77402;SDS011;66472;53.046;8.656;2023-03-01T19:34:31;33.97;;;23.60;;
77402;SDS011;66472;53.046;8.656;2023-03-01T19:39:27;29.67;;;19.73;;
77402;SDS011;66472;53.046;8.656;2023-03-01T19:44:22;36.37;;;22.67;;
77402;SDS011;66472;53.046;8.656;2023-03-01T19:49:19;44.87;;;26.87;;
77402;SDS011;66472;53.046;8.656;2023-03-01T19:54:14;52.17;;;30.63;;
77402;SDS011;66472;53.046;8.656;2023-03-01T19:59:14;47.80;;;26.70;;
77402;SDS011;66472;53.046;8.656;2023-03-01T20:04:09;49.47;;;26.80;;
77402;SDS011;66472;53.046;8.656;2023-03-01T20:09:05;59.03;;;26.83;;
77402;SDS011;66472;53.046;8.656;2023-03-01T20:14:01;46.23;;;24.40;;
77402;SDS011;66472;53.046;8.656;2023-03-01T20:19:01;48.67;;;25.57;;
77402;SDS011;66472;53.046;8.656;2023-03-01T20:23:56;42.57;;;24.63;;
77402;SDS011;66472;53.046;8.656;2023-03-01T20:28:52;38.92;;;24.52;;
77402;SDS011;66472;53.046;8.656;2023-03-01T20:33:48;45.13;;;25.27;;
77402;SDS011;66472;53.046;8.656;2023-03-01T20:38:43;42.40;;;24.27;;
77402;SDS011;66472;53.046;8.656;2023-03-01T20:43:39;38.97;;;22.98;;
77402;SDS011;66472;53.046;8.656;2023-03-01T20:48:35;41.03;;;22.57;;
77402;SDS011;66472;53.046;8.656;2023-03-01T20:53:31;41.53;;;25.07;;
77402;SDS011;66472;53.046;8.656;2023-03-01T20:58:26;36.07;;;21.80;;
77402;SDS011;66472;53.046;8.656;2023-03-01T21:03:22;36.33;;;22.00;;
77402;SDS011;66472;53.046;8.656;2023-03-01T21:08:17;34.22;;;23.70;;
77402;SDS011;66472;53.046;8.656;2023-03-01T21:13:13;42.70;;;24.35;;
77402;SDS011;66472;53.046;8.656;2023-03-01T21:18:08;35.40;;;23.43;;
77402;SDS011;66472;53.046;8.656;2023-03-01T21:23:04;30.33;;;21.98;;
77402;SDS011;66472;53.046;8.656;2023-03-01T21:27:59;32.05;;;21.52;;
77402;SDS011;66472;53.046;8.656;2023-03-01T21:32:55;31.60;;;22.93;;
77402;SDS011;66472;53.046;8.656;2023-03-01T21:37:50;27.30;;;21.17;;
77402;SDS011;66472;53.046;8.656;2023-03-01T21:42:45;38.63;;;22.42;;
77402;SDS011;66472;53.046;8.656;2023-03-01T21:47:43;32.40;;;21.63;;
77402;SDS011;66472;53.046;8.656;2023-03-01T21:52:39;32.07;;;22.47;;
77402;SDS011;66472;53.046;8.656;2023-03-01T21:57:34;26.40;;;22.55;;
77402;SDS011;66472;53.046;8.656;2023-03-01T22:02:37;28.13;;;21.43;;
77402;SDS011;66472;53.046;8.656;2023-03-01T22:07:33;29.10;;;22.77;;
77402;SDS011;66472;53.046;8.656;2023-03-01T22:12:28;32.37;;;22.60;;
77402;SDS011;66472;53.046;8.656;2023-03-01T22:17:23;28.77;;;21.00;;
77402;SDS011;66472;53.046;8.656;2023-03-01T22:22:18;26.58;;;22.00;;
77402;SDS011;66472;53.046;8.656;2023-03-01T22:27:14;26.83;;;21.35;;
77402;SDS011;66472;53.046;8.656;2023-03-01T22:32:09;35.03;;;24.20;;
77402;SDS011;66472;53.046;8.656;2023-03-01T22:37:05;31.77;;;21.50;;
77402;SDS011;66472;53.046;8.656;2023-03-01T22:42:00;34.83;;;22.50;;
77402;SDS011;66472;53.046;8.656;2023-03-01T22:46:55;36.47;;;21.13;;
77402;SDS011;66472;53.046;8.656;2023-03-01T22:51:50;53.47;;;30.77;;
77402;SDS011;66472;53.046;8.656;2023-03-01T22:56:46;31.67;;;23.40;;
77402;SDS011;66472;53.046;8.656;2023-03-01T23:01:42;30.93;;;23.67;;
77402;SDS011;66472;53.046;8.656;2023-03-01T23:06:38;32.13;;;23.77;;
77402;SDS011;66472;53.046;8.656;2023-03-01T23:11:44;41.60;;;24.27;;
77402;SDS011;66472;53.046;8.656;2023-03-01T23:16:39;47.40;;;25.47;;
77402;SDS011;66472;53.046;8.656;2023-03-01T23:21:34;44.97;;;27.33;;
77402;SDS011;66472;53.046;8.656;2023-03-01T23:26:30;27.73;;;23.50;;
77402;SDS011;66472;53.046;8.656;2023-03-01T23:31:25;48.57;;;25.67;;
77402;SDS011;66472;53.046;8.656;2023-03-01T23:36:25;47.40;;;23.70;;
77402;SDS011;66472;53.046;8.656;2023-03-01T23:41:21;32.50;;;23.40;;
77402;SDS011;66472;53.046;8.656;2023-03-01T23:46:18;50.87;;;24.27;;
77402;SDS011;66472;53.046;8.656;2023-03-01T23:51:14;36.97;;;25.87;;
77402;SDS011;66472;53.046;8.656;2023-03-01T23:56:10;46.30;;;24.37;;
